Weather reports worldwide

Advertisment
Ross-on-Wye, United Kingdom (99207): temperature & dewpoint: 20.03.2019 19:00:00 - 26.03.2019 19:00:00 (GMT)Ross-on-Wye, United Kingdom (99207): temperature -20cm: 20.03.2019 19:00:00 - 26.03.2019 19:00:00 (GMT)Ross-on-Wye, United Kingdom (99207): wind speed: 20.03.2019 19:00:00 - 26.03.2019 19:00:00 (GMT)Ross-on-Wye, United Kingdom (99207): wind direction: 20.03.2019 19:00:00 - 26.03.2019 19:00:00 (GMT)Ross-on-Wye, United Kingdom (99207): sunshine duration: 20.03.2019 19:00:00 - 26.03.2019 19:00:00 (GMT)Ross-on-Wye, United Kingdom (99207): precipitation: 20.03.2019 19:00:00 - 26.03.2019 19:00:00 (GMT)
Date & Time tt [°C] td [°C] tt -20cm [°C] ff [km/h] ff [kn] dd sd [min] rr [mm]
26.03.2019 19:00:00 10,3 3,7 - 9 5 WNW 18 0,0
26.03.2019 18:00:00 12,3 3,8 - 8 4 WNW 60 0,0
26.03.2019 17:00:00 14,1 3,6 - 8 4 WNW 60 0,0
26.03.2019 16:00:00 14,5 3,8 - 8 4 WNW 60 0,0
26.03.2019 15:00:00 13,9 3,3 - 9 5 WNW 60 0,0
26.03.2019 14:00:00 12,7 2,9 - 9 5 W 60 0,0
26.03.2019 13:00:00 12,5 3,2 - 11 6 NW 54 0,0
26.03.2019 12:00:00 11,4 2,1 - 13 7 W 18 0,0
26.03.2019 11:00:00 11,0 2,7 - 5 3 NW 48 0,0
26.03.2019 10:00:00 10,2 4,6 - 4 2 WNW 60 0,0
26.03.2019 09:00:00 6,9 3,3 9,5 4 2 WSW 48 0,0
26.03.2019 08:00:00 2,3 1,8 - 2 1 WSW 42 0,0
26.03.2019 07:00:00 0,4 -0,1 - 2 1 SW 0 0,0
26.03.2019 06:00:00 0,0 -0,7 - 2 1 NNE 0 0,0
26.03.2019 05:00:00 0,3 -0,6 - 0 0 N 0 0,0
26.03.2019 04:00:00 1,1 0,3 - 4 2 SSW 0 0,0
26.03.2019 03:00:00 1,0 0,0 - 2 1 WSW 0 0,0
26.03.2019 02:00:00 1,6 0,1 - 2 1 E 0 0,0
26.03.2019 01:00:00 2,2 0,3 - 0 0 N 0 0,0
26.03.2019 00:00:00 3,8 0,8 - 2 1 ESE - 0,0
25.03.2019 23:00:00 5,4 1,2 - 4 2 WSW 0 0,0
25.03.2019 22:00:00 5,8 0,9 - 2 1 W 0 0,0
25.03.2019 21:00:00 6,4 1,4 - 4 2 E 0 0,0
25.03.2019 20:00:00 7,9 1,3 - 5 3 NE 0 0,0
25.03.2019 19:00:00 9,2 1,0 - 4 2 ENE 18 0,0
25.03.2019 18:00:00 11,5 0,6 - 8 4 NNE 60 0,0
25.03.2019 17:00:00 12,8 0,3 - 5 3 NNW 60 0,0
25.03.2019 16:00:00 12,8 0,4 - 9 5 NW 60 0,0
25.03.2019 15:00:00 12,9 1,7 - 9 5 NNW 60 0,0
25.03.2019 14:00:00 12,6 1,6 - 9 5 N 60 0,0
25.03.2019 13:00:00 12,3 1,2 - 13 7 N 60 0,0
25.03.2019 12:00:00 11,0 0,9 - 13 7 N 60 0,0
25.03.2019 11:00:00 11,1 1,4 - 13 7 N 60 0,0
25.03.2019 10:00:00 9,5 1,2 - 21 11 N 60 0,0
25.03.2019 09:00:00 8,7 1,1 9,7 16 9 N 48 0,0
25.03.2019 08:00:00 7,1 1,3 - 15 8 N 42 0,0
25.03.2019 07:00:00 6,1 1,2 - 9 5 N 18 0,0
25.03.2019 06:00:00 6,0 0,9 - 5 3 N 0 0,0
25.03.2019 05:00:00 6,4 1,1 - 8 4 NNW 0 0,0
25.03.2019 04:00:00 7,3 2,9 - 5 3 NNW 0 0,0
25.03.2019 03:00:00 7,7 3,1 - 9 5 WNW 0 0,0
25.03.2019 02:00:00 7,6 3,0 - 11 6 W 0 0,0
25.03.2019 01:00:00 7,8 2,9 - 11 6 W 0 0,0
25.03.2019 00:00:00 8,2 3,3 - 11 6 W - 0,0
24.03.2019 23:00:00 8,1 3,0 - 13 7 W 0 0,0
24.03.2019 22:00:00 8,0 2,8 - 16 9 W 0 0,0
24.03.2019 21:00:00 8,4 2,2 - 13 7 W 0 0,0
24.03.2019 20:00:00 8,2 1,9 - 13 7 W 0 0,0
24.03.2019 19:00:00 8,3 1,9 - 11 6 W 6 0,0
24.03.2019 18:00:00 9,5 1,4 - 13 7 WNW 60 0,0
24.03.2019 17:00:00 10,6 1,1 - 16 9 WNW 54 0,0
24.03.2019 16:00:00 11,4 0,6 - 18 10 WNW 60 0,0
24.03.2019 15:00:00 11,8 0,2 - 11 6 NW 60 0,0
24.03.2019 14:00:00 11,6 -0,2 - 18 10 WNW 60 0,0
24.03.2019 13:00:00 11,5 1,5 - 13 7 WNW 54 0,0
24.03.2019 12:00:00 10,5 1,0 - 11 6 WNW 60 0,0
24.03.2019 11:00:00 10,2 1,6 - 11 6 WNW 60 0,0
24.03.2019 10:00:00 9,4 1,5 - 9 5 NNW 54 0,0
24.03.2019 09:00:00 8,3 3,2 9,4 5 3 W 48 0,0
24.03.2019 08:00:00 5,5 2,6 - 5 3 SW 42 0,0
24.03.2019 07:00:00 3,6 2,2 - 4 2 SW 18 0,0
24.03.2019 06:00:00 3,9 1,7 - 4 2 SW 0 0,0
24.03.2019 05:00:00 5,2 2,7 - 2 1 NE 0 0,0
24.03.2019 04:00:00 5,2 2,8 - 4 2 WSW 0 0,0
24.03.2019 03:00:00 6,0 1,8 - 2 1 SSE 0 0,0
24.03.2019 02:00:00 6,2 1,6 - 2 1 NNW 0 0,0
24.03.2019 01:00:00 6,5 1,8 - 2 1 N 0 0,0
24.03.2019 00:00:00 7,0 1,5 - 4 2 NNE - 0,0
23.03.2019 23:00:00 7,3 1,8 - 4 2 NE 0 0,0
23.03.2019 22:00:00 7,4 2,2 - 4 2 NE 0 0,0
23.03.2019 21:00:00 7,7 2,5 - 4 2 ENE 0 0,0
23.03.2019 20:00:00 8,3 2,8 - 4 2 ENE 0 0,0
23.03.2019 19:00:00 8,8 2,7 - 4 2 NNE 0 0,0
23.03.2019 18:00:00 9,4 2,5 - 8 4 ENE 0 0,0
23.03.2019 17:00:00 10,2 2,0 - 8 4 NE 6 0,0
23.03.2019 16:00:00 10,7 2,0 - 11 6 NE 12 0,0
23.03.2019 15:00:00 10,7 3,0 - 11 6 NE 0 0,0
23.03.2019 14:00:00 10,3 3,0 - 9 5 NE 0 0,0
23.03.2019 13:00:00 10,1 2,7 - 11 6 NE 0 0,0
23.03.2019 12:00:00 9,9 3,8 - 11 6 NNE 0 0,0
23.03.2019 11:00:00 9,4 4,2 - 9 5 NNE 0 0,0
23.03.2019 10:00:00 8,8 3,9 - 11 6 NE 0 0,0
23.03.2019 09:00:00 8,7 3,7 9,7 11 6 NE 0 0,0
23.03.2019 08:00:00 8,1 3,8 - 8 4 NNE 0 0,0
23.03.2019 07:00:00 7,6 3,7 - 5 3 NE 0 0,0
23.03.2019 06:00:00 7,5 3,9 - 5 3 NNE 0 0,0
23.03.2019 05:00:00 8,3 4,1 - 8 4 NNE 0 0,0
23.03.2019 04:00:00 8,9 5,6 - 5 3 N 0 0,0
23.03.2019 03:00:00 9,1 5,8 - 2 1 N 0 0,0
23.03.2019 02:00:00 9,5 6,0 - 4 2 NW 0 0,0
23.03.2019 01:00:00 9,8 7,4 - 8 4 W 0 0,0
23.03.2019 00:00:00 10,1 7,1 - 8 4 SW - 0,0
22.03.2019 23:00:00 10,1 6,9 - 8 4 SSW 0 0,0
22.03.2019 22:00:00 10,1 6,6 - 9 5 SW 0 0,0
22.03.2019 21:00:00 10,3 5,9 - 9 5 SW 0 0,0
22.03.2019 20:00:00 10,8 5,4 - 11 6 SW 0 0,0
22.03.2019 19:00:00 11,4 5,0 - 15 8 WSW 0 0,0
22.03.2019 18:00:00 11,6 5,4 - 13 7 W 0 0,0
22.03.2019 17:00:00 12,1 6,2 - 11 6 W 0 0,0
22.03.2019 16:00:00 12,4 6,3 - 15 8 WSW 0 0,0
22.03.2019 15:00:00 12,6 6,0 - 18 10 WSW 12 0,0
22.03.2019 14:00:00 11,7 6,3 - 16 9 SW 24 0,0
22.03.2019 13:00:00 12,3 7,1 - 15 8 SW 6 0,0
22.03.2019 12:00:00 11,0 6,3 - 13 7 SW 0 0,0
22.03.2019 11:00:00 11,3 6,0 - 11 6 SSW 0 0,0
22.03.2019 10:00:00 10,5 5,8 - 13 7 SW 0 0,0
22.03.2019 09:00:00 9,7 5,9 9,9 13 7 SW 0 0,0
22.03.2019 08:00:00 9,1 6,5 - 11 6 SW 0 0,0
22.03.2019 07:00:00 9,0 6,2 - 11 6 SW 0 0,0
22.03.2019 06:00:00 9,3 6,0 - 13 7 SSW 0 0,0
22.03.2019 05:00:00 9,8 6,7 - 13 7 SSW 0 0,0
22.03.2019 04:00:00 10,4 8,2 - 11 6 SSW 0 0,0
22.03.2019 03:00:00 10,4 8,4 - 5 3 SSW 0 0,0
22.03.2019 02:00:00 10,5 8,3 - 5 3 SSW 0 0,0
22.03.2019 01:00:00 10,8 8,0 - 5 3 S 0 0,0
22.03.2019 00:00:00 10,8 8,4 - 5 3 SSW - 0,0
21.03.2019 23:00:00 11,1 8,4 - 4 2 S 0 0,0
21.03.2019 22:00:00 11,3 8,4 - 8 4 S 0 0,0
21.03.2019 21:00:00 11,6 8,7 - 5 3 S 0 0,0
21.03.2019 20:00:00 11,8 9,2 - 2 1 S 0 0,0
21.03.2019 19:00:00 12,4 9,5 - 4 2 SE 0 0,0
21.03.2019 18:00:00 13,0 9,6 - 2 1 SE 0 0,0
21.03.2019 17:00:00 13,1 9,5 - 4 2 SSW 0 0,0
21.03.2019 16:00:00 13,3 9,5 - 8 4 SW 0 0,0
21.03.2019 15:00:00 13,4 9,4 - 8 4 SSW 0 0,0
21.03.2019 14:00:00 13,6 8,9 - 2 1 W 0 0,0
21.03.2019 13:00:00 13,2 8,9 - 4 2 SW 0 0,0
21.03.2019 12:00:00 12,0 8,8 - 2 1 NW 0 0,0
21.03.2019 11:00:00 11,4 8,7 - 4 2 NW 0 0,0
21.03.2019 10:00:00 10,9 8,5 - 4 2 W 0 0,0
21.03.2019 09:00:00 9,4 8,3 9,2 4 2 W 0 0,0
21.03.2019 08:00:00 7,8 7,5 - 2 1 WNW 36 0,0
21.03.2019 07:00:00 5,9 5,2 - 4 2 WNW 18 0,0
21.03.2019 06:00:00 7,2 6,5 - 5 3 SW 0 0,0
21.03.2019 05:00:00 7,3 6,3 - 5 3 SW 0 0,0
21.03.2019 04:00:00 7,7 6,5 - 5 3 WSW 0 0,0
21.03.2019 03:00:00 8,0 6,9 - 5 3 SSW 0 0,0
21.03.2019 02:00:00 7,4 6,6 - 5 3 SSW 0 0,0
21.03.2019 01:00:00 7,2 6,2 - 5 3 SSW 0 0,0
21.03.2019 00:00:00 7,1 6,2 - 4 2 SW - 0,0
20.03.2019 23:00:00 7,5 6,4 - 8 4 SW 0 0,0
20.03.2019 22:00:00 8,1 6,8 - 9 5 SW 0 0,0
20.03.2019 21:00:00 8,7 7,0 - 9 5 SW 0 0,0
20.03.2019 20:00:00 9,6 7,7 - 9 5 SW 0 0,0
20.03.2019 19:00:00 10,8 8,2 - 5 3 SW 0 0,0

tt = temperature
td = dewpoint
tt -20cm = temperature -20cm
ff = wind speed
dd = wind direction
sd = sunshine duration
rr = precipitation

Next stations